createdAt,value
2022-12-17T00:01:25.473Z,-1.87
2022-12-17T00:04:12.680Z,-2.03
2022-12-17T00:07:13.523Z,-2.10
2022-12-17T00:10:03.053Z,-2.22
2022-12-17T00:12:50.223Z,-2.01
2022-12-17T00:15:41.951Z,-2.16
2022-12-17T00:18:30.419Z,-2.18
2022-12-17T00:21:19.104Z,-2.08
2022-12-17T00:24:06.753Z,-2.19
2022-12-17T00:26:53.714Z,-2.14
2022-12-17T00:29:40.756Z,-2.24
2022-12-17T00:32:27.875Z,-2.30
2022-12-17T00:35:14.549Z,-2.30
2022-12-17T00:38:05.217Z,-2.29
2022-12-17T00:40:52.646Z,-2.21
2022-12-17T00:43:53.122Z,-2.15
2022-12-17T00:46:43.500Z,-2.20
2022-12-17T00:49:35.348Z,-2.28
2022-12-17T00:52:21.979Z,-2.33
2022-12-17T00:55:08.911Z,-2.42
2022-12-17T00:58:01.293Z,-2.40
2022-12-17T01:00:47.882Z,-2.41
2022-12-17T01:03:35.230Z,-2.35
2022-12-17T01:06:22.966Z,-2.27
2022-12-17T01:09:09.622Z,-2.19
2022-12-17T01:11:56.794Z,-2.28
2022-12-17T01:14:44.629Z,-2.55
2022-12-17T01:17:31.755Z,-2.53
2022-12-17T01:20:18.554Z,-2.57
2022-12-17T01:23:06.988Z,-2.73
2022-12-17T01:25:53.707Z,-2.72
2022-12-17T01:28:44.825Z,-2.52
2022-12-17T01:31:34.865Z,-2.37
2022-12-17T01:34:22.083Z,-2.49
2022-12-17T01:37:08.719Z,-2.43
2022-12-17T01:43:01.225Z,-2.50
2022-12-17T01:45:56.380Z,-2.47
2022-12-17T01:48:48.929Z,-2.32
2022-12-17T01:51:36.937Z,-2.25
2022-12-17T01:54:24.152Z,-2.30
2022-12-17T01:57:11.639Z,-2.24
2022-12-17T02:00:05.866Z,-2.22
2022-12-17T02:03:01.093Z,-2.24
2022-12-17T02:06:11.520Z,-2.09
2022-12-17T02:09:29.831Z,-2.25
2022-12-17T02:12:49.917Z,-2.43
2022-12-17T02:15:50.974Z,-2.55
2022-12-17T02:18:48.141Z,-2.51
2022-12-17T02:21:34.828Z,-2.50
2022-12-17T02:24:35.685Z,-2.48
2022-12-17T02:27:27.163Z,-2.47
2022-12-17T02:30:18.389Z,-2.60
2022-12-17T02:33:07.812Z,-2.56
2022-12-17T02:36:00.970Z,-2.52
2022-12-17T02:38:50.193Z,-2.66
2022-12-17T02:41:56.888Z,-2.59
2022-12-17T02:44:44.392Z,-2.48
2022-12-17T02:47:38.214Z,-2.57
2022-12-17T02:50:26.794Z,-2.70
2022-12-17T02:53:14.718Z,-2.64
2022-12-17T02:56:03.080Z,-2.51
2022-12-17T02:58:50.289Z,-2.37
2022-12-17T03:01:37.074Z,-2.46
2022-12-17T03:04:23.777Z,-2.50
2022-12-17T03:07:10.251Z,-2.51
2022-12-17T03:09:58.237Z,-2.68
2022-12-17T03:12:45.033Z,-2.60
2022-12-17T03:15:31.822Z,-2.60
2022-12-17T03:18:18.523Z,-2.57
2022-12-17T03:21:05.012Z,-2.49
2022-12-17T03:23:51.309Z,-2.47
2022-12-17T03:26:37.448Z,-2.55
2022-12-17T03:29:24.082Z,-2.65
2022-12-17T03:32:10.676Z,-2.70
2022-12-17T03:34:57.168Z,-2.65
2022-12-17T03:37:43.518Z,-2.37
2022-12-17T03:40:30.337Z,-2.39
2022-12-17T03:43:16.737Z,-2.59
2022-12-17T03:46:10.442Z,-2.65
2022-12-17T03:48:57.021Z,-2.56
2022-12-17T03:51:43.477Z,-2.67
2022-12-17T03:54:29.761Z,-2.81
2022-12-17T03:57:16.578Z,-2.85
2022-12-17T04:00:03.385Z,-2.89
2022-12-17T04:02:58.644Z,-2.96
2022-12-17T04:05:45.671Z,-2.95
2022-12-17T04:08:31.969Z,-2.88
2022-12-17T04:11:18.218Z,-2.85
2022-12-17T04:14:04.305Z,-3.02
2022-12-17T04:16:50.814Z,-3.08
2022-12-17T04:19:37.048Z,-2.99
2022-12-17T04:22:24.371Z,-3.08
2022-12-17T04:25:10.713Z,-3.08
2022-12-17T04:28:01.445Z,-3.23
2022-12-17T04:30:48.405Z,-3.22
2022-12-17T04:33:35.114Z,-3.26
2022-12-17T04:36:21.729Z,-3.18
2022-12-17T04:39:08.621Z,-3.18
2022-12-17T04:41:54.989Z,-3.22
2022-12-17T04:44:41.426Z,-3.14
2022-12-17T04:47:27.628Z,-2.98
2022-12-17T04:50:13.653Z,-2.78
2022-12-17T04:52:59.985Z,-2.88
2022-12-17T04:55:46.413Z,-3.00
2022-12-17T04:58:32.989Z,-3.12
2022-12-17T05:01:19.553Z,-3.04
2022-12-17T05:04:06.327Z,-2.95
2022-12-17T05:06:52.934Z,-3.04
2022-12-17T05:09:39.192Z,-3.10
2022-12-17T05:12:25.367Z,-3.03
2022-12-17T05:15:11.884Z,-3.06
2022-12-17T05:17:58.537Z,-3.20
2022-12-17T05:20:45.077Z,-3.22
2022-12-17T05:23:31.561Z,-3.04
2022-12-17T05:26:29.667Z,-3.08
2022-12-17T05:29:16.338Z,-3.11
2022-12-17T05:32:02.663Z,-3.10
2022-12-17T05:35:06.744Z,-2.95
2022-12-17T05:38:10.986Z,-2.91
2022-12-17T05:40:59.176Z,-2.93
2022-12-17T05:43:45.595Z,-3.07
2022-12-17T05:46:38.243Z,-2.99
2022-12-17T05:49:28.127Z,-2.90
2022-12-17T05:52:24.296Z,-2.74
2022-12-17T05:55:11.799Z,-2.72
2022-12-17T05:57:59.137Z,-2.53
2022-12-17T06:00:45.927Z,-2.59
2022-12-17T06:03:33.071Z,-2.57
2022-12-17T06:06:19.902Z,-2.30
2022-12-17T06:09:06.642Z,-2.21
2022-12-17T06:11:56.624Z,-2.28
2022-12-17T06:14:45.723Z,-2.13
2022-12-17T06:17:32.450Z,-2.12
2022-12-17T06:20:18.702Z,-2.13
2022-12-17T06:23:05.672Z,-2.18
2022-12-17T06:25:52.932Z,-2.24
2022-12-17T06:28:40.094Z,-2.27
2022-12-17T06:31:27.119Z,-2.25
2022-12-17T06:34:13.925Z,-2.22
2022-12-17T06:37:00.952Z,-2.14
2022-12-17T06:39:50.069Z,-2.20
2022-12-17T06:42:37.181Z,-2.15
2022-12-17T06:45:24.704Z,-2.10
2022-12-17T06:48:11.788Z,-2.01
2022-12-17T06:50:58.394Z,-1.91
2022-12-17T06:53:45.586Z,-1.86
2022-12-17T06:56:32.303Z,-1.97
2022-12-17T06:59:18.505Z,-1.85
2022-12-17T07:02:05.142Z,-1.79
2022-12-17T07:04:52.333Z,-1.74
2022-12-17T07:07:39.010Z,-1.79
2022-12-17T07:10:26.132Z,-1.74
2022-12-17T07:13:12.807Z,-1.79
2022-12-17T07:16:09.685Z,-1.79
2022-12-17T07:18:57.253Z,-1.81
2022-12-17T07:21:44.051Z,-1.66
2022-12-17T07:24:30.770Z,-1.52
2022-12-17T07:27:17.522Z,-1.41
2022-12-17T07:30:05.959Z,-1.42
2022-12-17T07:32:56.388Z,-1.23
2022-12-17T07:35:46.554Z,-1.17
2022-12-17T07:38:33.219Z,-1.32
2022-12-17T07:41:20.154Z,-1.27
2022-12-17T07:44:06.990Z,-1.10
2022-12-17T07:46:56.635Z,-1.18
2022-12-17T07:50:02.266Z,-1.06
2022-12-17T07:52:49.148Z,-0.93
2022-12-17T07:55:36.110Z,-0.95
2022-12-17T07:58:26.141Z,-1.09
2022-12-17T08:01:13.168Z,-1.06
2022-12-17T08:03:59.826Z,-1.01
2022-12-17T08:06:46.429Z,-0.91
2022-12-17T08:09:33.525Z,-1.00
2022-12-17T08:12:20.623Z,-0.92
2022-12-17T08:15:07.702Z,-0.92
2022-12-17T08:17:55.006Z,-0.80
2022-12-17T08:20:42.701Z,-0.69
2022-12-17T08:23:32.925Z,-0.63
2022-12-17T08:26:20.249Z,-0.50
2022-12-17T08:29:07.153Z,-0.50
2022-12-17T08:31:54.004Z,-0.54
2022-12-17T08:34:40.719Z,-0.61
2022-12-17T08:37:27.664Z,-0.49
2022-12-17T08:40:15.576Z,-0.33
2022-12-17T08:43:03.108Z,-0.27
2022-12-17T08:45:50.832Z,-0.36
2022-12-17T08:48:39.782Z,-0.30
2022-12-17T08:51:27.344Z,-0.26
2022-12-17T08:54:14.133Z,-0.01
2022-12-17T08:57:01.353Z,0.01
2022-12-17T08:59:49.979Z,-0.04
2022-12-17T09:02:40.167Z,-0.00
2022-12-17T09:05:28.429Z,0.09
2022-12-17T09:08:24.727Z,0.17
2022-12-17T09:11:18.854Z,0.21
2022-12-17T09:14:08.387Z,0.12
2022-12-17T09:16:56.195Z,0.06
2022-12-17T09:19:53.207Z,0.18
2022-12-17T09:22:41.372Z,0.31
2022-12-17T09:25:28.701Z,0.35
2022-12-17T09:28:19.795Z,0.18
2022-12-17T09:31:07.512Z,0.14
2022-12-17T09:34:12.676Z,0.26
2022-12-17T09:37:01.315Z,0.39
2022-12-17T09:39:52.645Z,0.55
2022-12-17T09:43:16.334Z,0.66
2022-12-17T09:46:39.217Z,0.78
2022-12-17T09:49:47.203Z,0.78
2022-12-17T09:52:51.993Z,0.64
2022-12-17T09:55:43.779Z,0.46
2022-12-17T09:58:43.338Z,0.24
2022-12-17T10:01:47.498Z,-0.02
2022-12-17T10:04:53.547Z,0.02
2022-12-17T10:07:44.308Z,-0.01
2022-12-17T10:10:44.069Z,0.07
2022-12-17T10:13:35.504Z,0.03
2022-12-17T10:16:47.709Z,0.25
2022-12-17T10:19:44.391Z,0.51
2022-12-17T10:22:33.775Z,0.57
2022-12-17T10:25:41.813Z,0.43
2022-12-17T10:28:34.713Z,0.39
2022-12-17T10:31:30.269Z,0.50
2022-12-17T10:34:17.060Z,0.32
2022-12-17T10:37:07.494Z,0.24
2022-12-17T10:39:54.313Z,0.28
2022-12-17T10:42:50.203Z,0.22
2022-12-17T10:45:49.079Z,0.23
2022-12-17T10:48:47.316Z,0.23
2022-12-17T10:51:39.415Z,0.16
2022-12-17T10:54:49.679Z,0.22
2022-12-17T10:57:50.011Z,0.30
2022-12-17T11:00:37.023Z,0.04
2022-12-17T11:03:24.876Z,0.15
2022-12-17T11:06:14.118Z,0.25
2022-12-17T11:09:01.466Z,0.20
2022-12-17T11:11:48.798Z,0.26
2022-12-17T11:14:36.038Z,0.39
2022-12-17T11:17:26.689Z,0.49
2022-12-17T11:20:27.166Z,0.43
2022-12-17T11:23:18.197Z,0.37
2022-12-17T11:26:14.778Z,0.43
2022-12-17T11:29:01.855Z,0.30
2022-12-17T11:31:55.088Z,0.47
2022-12-17T11:34:48.151Z,0.64
2022-12-17T11:37:39.811Z,0.64
2022-12-17T11:40:53.668Z,0.63
2022-12-17T11:43:59.389Z,0.53
2022-12-17T11:47:07.157Z,0.60
2022-12-17T11:50:43.352Z,0.60
2022-12-17T11:53:49.991Z,0.63
2022-12-17T11:56:46.413Z,0.86
2022-12-17T11:59:55.077Z,0.78
2022-12-17T12:03:03.199Z,0.84
2022-12-17T12:05:59.719Z,0.93
2022-12-17T12:08:49.717Z,0.82
2022-12-17T12:12:12.402Z,0.77
2022-12-17T12:15:42.302Z,0.61
2022-12-17T12:18:39.358Z,0.56
2022-12-17T12:21:41.622Z,0.69
2022-12-17T12:24:33.638Z,0.82
2022-12-17T12:27:42.785Z,0.82
2022-12-17T12:30:35.803Z,0.78
2022-12-17T12:33:48.130Z,0.75
2022-12-17T12:36:38.698Z,0.72
2022-12-17T12:39:31.669Z,0.59
2022-12-17T12:42:27.129Z,0.58
2022-12-17T12:45:28.679Z,0.47
2022-12-17T12:49:02.664Z,0.39
2022-12-17T12:51:55.319Z,0.51
2022-12-17T12:55:12.076Z,0.37
2022-12-17T12:58:16.378Z,0.27
2022-12-17T13:01:04.218Z,0.19
2022-12-17T13:03:53.229Z,0.31
2022-12-17T13:06:54.564Z,0.24
2022-12-17T13:09:39.529Z,0.49
2022-12-17T13:12:20.185Z,0.55
2022-12-17T13:15:04.208Z,0.56
2022-12-17T13:17:55.533Z,0.47
2022-12-17T13:20:28.788Z,0.37
2022-12-17T13:23:10.108Z,0.30
2022-12-17T13:25:40.019Z,0.23
2022-12-17T13:28:31.561Z,0.19
2022-12-17T13:31:20.804Z,0.37
2022-12-17T13:34:04.811Z,0.35
2022-12-17T13:36:54.889Z,0.19
2022-12-17T13:39:32.764Z,0.27
2022-12-17T13:42:02.051Z,0.28
2022-12-17T13:44:40.348Z,0.24
2022-12-17T13:47:38.626Z,0.27
2022-12-17T13:50:34.331Z,0.31
2022-12-17T13:53:13.289Z,0.02
2022-12-17T13:55:41.680Z,-0.28
2022-12-17T13:58:31.454Z,-0.25
2022-12-17T14:01:16.209Z,-0.25
2022-12-17T14:04:06.269Z,-0.26
2022-12-17T14:06:39.507Z,-0.44
2022-12-17T14:09:18.522Z,-0.29
2022-12-17T14:12:07.613Z,-0.26
2022-12-17T14:14:44.155Z,-0.23
2022-12-17T14:17:19.336Z,-0.28
2022-12-17T14:19:53.308Z,-0.30
2022-12-17T14:22:55.655Z,-0.22
2022-12-17T14:25:27.490Z,-0.20
2022-12-17T14:27:59.989Z,-0.27
2022-12-17T14:31:17.188Z,-0.34
2022-12-17T14:33:37.987Z,-0.39
2022-12-17T14:36:19.864Z,-0.51
2022-12-17T14:39:03.874Z,-0.70
2022-12-17T14:41:57.807Z,-0.62
2022-12-17T14:44:29.169Z,-0.48
2022-12-17T14:47:25.745Z,-0.55
2022-12-17T14:50:03.035Z,-0.52
2022-12-17T14:52:50.098Z,-0.26
2022-12-17T14:55:36.821Z,-0.14
2022-12-17T14:58:13.397Z,0.11
2022-12-17T15:00:44.785Z,0.21
2022-12-17T15:03:46.175Z,0.18
2022-12-17T15:06:20.835Z,0.24
2022-12-17T15:08:53.435Z,0.37
2022-12-17T15:11:23.326Z,0.27
2022-12-17T15:13:56.322Z,-0.02
2022-12-17T15:16:25.811Z,0.02
2022-12-17T15:18:55.547Z,-0.02
2022-12-17T15:21:27.094Z,-0.01
2022-12-17T15:23:55.762Z,0.10
2022-12-17T15:26:26.762Z,0.12
2022-12-17T15:28:57.794Z,0.22
2022-12-17T15:31:30.680Z,0.32
2022-12-17T15:34:04.048Z,0.16
2022-12-17T15:36:48.185Z,0.27
2022-12-17T15:39:26.134Z,0.25
2022-12-17T15:42:12.985Z,0.32
2022-12-17T15:44:41.604Z,0.47
2022-12-17T15:47:10.223Z,0.39
2022-12-17T15:49:38.439Z,0.30
2022-12-17T15:52:07.021Z,0.41
2022-12-17T15:54:36.125Z,0.45
2022-12-17T15:57:10.883Z,0.52
2022-12-17T15:59:45.021Z,0.32
2022-12-17T16:02:20.472Z,0.40
2022-12-17T16:04:49.163Z,0.41
2022-12-17T16:07:17.319Z,0.48
2022-12-17T16:09:45.764Z,0.57
2022-12-17T16:12:14.749Z,0.59
2022-12-17T16:14:43.775Z,0.63
2022-12-17T16:17:13.461Z,0.68
2022-12-17T16:19:45.004Z,0.51
2022-12-17T16:22:13.659Z,0.55
2022-12-17T16:24:42.564Z,0.51
2022-12-17T16:27:14.528Z,0.39
2022-12-17T16:29:50.664Z,0.40
2022-12-17T16:32:22.785Z,0.39
2022-12-17T16:34:50.987Z,0.39
2022-12-17T16:37:19.473Z,0.29
2022-12-17T16:39:55.207Z,0.42
